sensor_id;sensor_type;location;lat;lon;timestamp;pressure;altitude;pressure_sealevel;temperature;humidity
50087;BME280;35967;50.718;7.050;2022-09-09T00:29:47;100063.44;;;19.54;67.06
50087;BME280;35967;50.718;7.050;2022-09-09T00:39:59;100081.81;;;19.40;66.84
50087;BME280;35967;50.718;7.050;2022-09-09T01:21:02;100076.50;;;19.29;68.21
50087;BME280;35967;50.718;7.050;2022-09-09T01:31:06;100084.53;;;19.13;68.71
50087;BME280;35967;50.718;7.050;2022-09-09T01:41:16;100081.59;;;19.04;69.19
50087;BME280;35967;50.718;7.050;2022-09-09T01:51:34;100072.00;;;19.05;69.38
50087;BME280;35967;50.718;7.050;2022-09-09T02:02:14;100072.88;;;19.18;68.96
50087;BME280;35967;50.718;7.050;2022-09-09T02:12:30;100081.38;;;19.07;69.30
50087;BME280;35967;50.718;7.050;2022-09-09T02:22:36;100081.19;;;19.11;68.71
50087;BME280;35967;50.718;7.050;2022-09-09T02:32:42;100084.94;;;18.94;69.33
50087;BME280;35967;50.718;7.050;2022-09-09T02:42:49;100065.53;;;18.98;68.72
50087;BME280;35967;50.718;7.050;2022-09-09T02:53:21;100061.97;;;18.99;69.01
50087;BME280;35967;50.718;7.050;2022-09-09T03:03:26;100065.41;;;18.99;68.93
50087;BME280;35967;50.718;7.050;2022-09-09T03:13:30;100060.13;;;19.01;69.03
50087;BME280;35967;50.718;7.050;2022-09-09T03:23:32;100058.13;;;19.04;69.09
50087;BME280;35967;50.718;7.050;2022-09-09T03:33:38;100056.25;;;18.94;69.02
50087;BME280;35967;50.718;7.050;2022-09-09T03:43:41;100062.69;;;18.88;69.65
50087;BME280;35967;50.718;7.050;2022-09-09T03:53:43;100059.75;;;18.80;70.44
50087;BME280;35967;50.718;7.050;2022-09-09T04:03:46;100048.59;;;18.90;70.58
50087;BME280;35967;50.718;7.050;2022-09-09T04:13:48;100052.34;;;18.86;70.87
50087;BME280;35967;50.718;7.050;2022-09-09T04:23:52;100065.47;;;18.85;70.08
50087;BME280;35967;50.718;7.050;2022-09-09T04:33:54;100066.84;;;18.90;70.03
50087;BME280;35967;50.718;7.050;2022-09-09T04:43:56;100071.84;;;18.81;70.12
50087;BME280;35967;50.718;7.050;2022-09-09T04:53:58;100085.88;;;18.65;70.67
50087;BME280;35967;50.718;7.050;2022-09-09T05:04:00;100077.28;;;18.50;71.22
50087;BME280;35967;50.718;7.050;2022-09-09T05:14:02;100078.78;;;18.54;70.68
50087;BME280;35967;50.718;7.050;2022-09-09T05:24:05;100086.59;;;18.54;70.55
50087;BME280;35967;50.718;7.050;2022-09-09T05:34:08;100086.53;;;18.69;69.87
50087;BME280;35967;50.718;7.050;2022-09-09T05:44:10;100087.25;;;18.43;70.42
50087;BME280;35967;50.718;7.050;2022-09-09T05:54:13;100068.31;;;18.41;70.40
50087;BME280;35967;50.718;7.050;2022-09-09T06:04:21;100075.44;;;18.52;69.77
50087;BME280;35967;50.718;7.050;2022-09-09T06:14:24;100081.22;;;18.83;68.64
50087;BME280;35967;50.718;7.050;2022-09-09T06:24:27;100073.47;;;19.09;67.55
50087;BME280;35967;50.718;7.050;2022-09-09T06:34:36;100067.53;;;19.33;65.88
50087;BME280;35967;50.718;7.050;2022-09-09T06:44:38;100061.31;;;19.60;65.85
50087;BME280;35967;50.718;7.050;2022-09-09T06:54:43;100067.75;;;19.93;63.60
50087;BME280;35967;50.718;7.050;2022-09-09T07:04:48;100064.63;;;20.00;62.12
50087;BME280;35967;50.718;7.050;2022-09-09T07:14:52;100066.06;;;20.29;58.66
50087;BME280;35967;50.718;7.050;2022-09-09T07:24:55;100068.72;;;20.40;58.35
50087;BME280;35967;50.718;7.050;2022-09-09T07:34:57;100084.25;;;20.55;57.00
50087;BME280;35967;50.718;7.050;2022-09-09T07:45:01;100109.50;;;20.67;57.19
50087;BME280;35967;50.718;7.050;2022-09-09T07:55:03;100113.84;;;20.31;57.39
50087;BME280;35967;50.718;7.050;2022-09-09T08:05:07;100124.13;;;20.21;57.38
50087;BME280;35967;50.718;7.050;2022-09-09T08:15:10;100112.22;;;20.65;57.29
50087;BME280;35967;50.718;7.050;2022-09-09T08:25:13;100112.28;;;20.53;55.42
50087;BME280;35967;50.718;7.050;2022-09-09T08:35:16;100119.78;;;21.17;52.02
50087;BME280;35967;50.718;7.050;2022-09-09T08:45:25;100110.59;;;21.00;51.69
50087;BME280;35967;50.718;7.050;2022-09-09T08:55:45;100122.94;;;20.87;53.31
50087;BME280;35967;50.718;7.050;2022-09-09T09:16:48;100139.31;;;20.89;51.57
50087;BME280;35967;50.718;7.050;2022-09-09T09:26:53;100136.94;;;21.33;50.48
50087;BME280;35967;50.718;7.050;2022-09-09T09:36:57;100134.78;;;21.26;49.64
50087;BME280;35967;50.718;7.050;2022-09-09T09:47:15;100145.09;;;21.05;49.75
50087;BME280;35967;50.718;7.050;2022-09-09T09:57:28;100130.41;;;21.38;49.63
50087;BME280;35967;50.718;7.050;2022-09-09T10:07:37;100132.44;;;21.46;50.30
50087;BME280;35967;50.718;7.050;2022-09-09T10:48:30;100114.91;;;21.24;51.40
50087;BME280;35967;50.718;7.050;2022-09-09T10:58:38;100134.19;;;21.23;49.76
50087;BME280;35967;50.718;7.050;2022-09-09T11:08:45;100105.97;;;22.40;48.11
50087;BME280;35967;50.718;7.050;2022-09-09T11:18:47;100098.63;;;22.11;48.68
50087;BME280;35967;50.718;7.050;2022-09-09T11:29:07;100095.50;;;22.61;47.06
50087;BME280;35967;50.718;7.050;2022-09-09T11:49:46;100083.09;;;22.63;46.47
50087;BME280;35967;50.718;7.050;2022-09-09T11:59:52;100084.09;;;22.51;47.48
50087;BME280;35967;50.718;7.050;2022-09-09T12:20:30;100092.09;;;22.49;45.49
50087;BME280;35967;50.718;7.050;2022-09-09T12:41:26;100085.34;;;22.24;45.41
50087;BME280;35967;50.718;7.050;2022-09-09T12:51:30;100073.81;;;22.27;46.62
50087;BME280;35967;50.718;7.050;2022-09-09T13:01:33;100073.81;;;22.27;46.70
50087;BME280;35967;50.718;7.050;2022-09-09T13:11:41;100058.91;;;22.16;46.58
50087;BME280;35967;50.718;7.050;2022-09-09T13:21:43;100073.75;;;22.05;51.02
50087;BME280;35967;50.718;7.050;2022-09-09T13:31:45;100056.34;;;21.93;52.03
50087;BME280;35967;50.718;7.050;2022-09-09T13:41:47;100061.31;;;22.08;48.71
50087;BME280;35967;50.718;7.050;2022-09-09T13:51:50;100065.97;;;22.15;50.04
50087;BME280;35967;50.718;7.050;2022-09-09T14:01:55;100040.41;;;22.29;49.84
50087;BME280;35967;50.718;7.050;2022-09-09T14:11:58;100037.78;;;21.96;51.27
50087;BME280;35967;50.718;7.050;2022-09-09T14:22:04;100044.63;;;22.52;50.04
50087;BME280;35967;50.718;7.050;2022-09-09T14:32:05;100044.56;;;22.31;49.45
50087;BME280;35967;50.718;7.050;2022-09-09T14:42:13;100032.09;;;22.56;50.07
50087;BME280;35967;50.718;7.050;2022-09-09T14:52:15;100050.72;;;22.53;48.86
50087;BME280;35967;50.718;7.050;2022-09-09T15:02:17;100047.19;;;22.43;50.48
50087;BME280;35967;50.718;7.050;2022-09-09T15:12:20;100053.66;;;22.16;50.99
50087;BME280;35967;50.718;7.050;2022-09-09T15:22:22;100069.88;;;22.21;51.58
50087;BME280;35967;50.718;7.050;2022-09-09T15:32:25;100077.22;;;21.83;52.62
50087;BME280;35967;50.718;7.050;2022-09-09T15:42:27;100061.88;;;21.67;56.04
50087;BME280;35967;50.718;7.050;2022-09-09T15:52:28;100092.56;;;21.54;56.92
50087;BME280;35967;50.718;7.050;2022-09-09T16:02:30;100081.88;;;21.57;56.34
50087;BME280;35967;50.718;7.050;2022-09-09T16:12:32;100083.44;;;21.59;56.22
50087;BME280;35967;50.718;7.050;2022-09-09T16:22:34;100091.16;;;21.72;55.45
50087;BME280;35967;50.718;7.050;2022-09-09T16:32:39;100083.75;;;21.55;54.88
50087;BME280;35967;50.718;7.050;2022-09-09T16:42:42;100086.88;;;21.49;57.90
50087;BME280;35967;50.718;7.050;2022-09-09T16:52:44;100099.59;;;21.31;61.73
50087;BME280;35967;50.718;7.050;2022-09-09T17:02:45;100113.22;;;21.00;62.90
50087;BME280;35967;50.718;7.050;2022-09-09T17:12:47;100130.06;;;20.85;63.09
50087;BME280;35967;50.718;7.050;2022-09-09T17:22:48;100135.50;;;20.57;65.70
50087;BME280;35967;50.718;7.050;2022-09-09T17:32:50;100142.31;;;20.23;65.20
50087;BME280;35967;50.718;7.050;2022-09-09T17:42:52;100165.84;;;20.23;65.95
50087;BME280;35967;50.718;7.050;2022-09-09T17:52:54;100174.50;;;20.23;65.41
50087;BME280;35967;50.718;7.050;2022-09-09T18:02:58;100180.50;;;20.12;63.95
50087;BME280;35967;50.718;7.050;2022-09-09T18:13:00;100183.31;;;19.96;62.62
50087;BME280;35967;50.718;7.050;2022-09-09T18:23:02;100185.00;;;19.97;62.20
50087;BME280;35967;50.718;7.050;2022-09-09T18:33:04;100185.72;;;19.99;61.92
50087;BME280;35967;50.718;7.050;2022-09-09T18:43:06;100195.22;;;19.75;63.09
50087;BME280;35967;50.718;7.050;2022-09-09T18:53:08;100198.56;;;19.77;63.36
50087;BME280;35967;50.718;7.050;2022-09-09T19:03:11;100188.16;;;19.90;62.99
50087;BME280;35967;50.718;7.050;2022-09-09T19:13:25;100202.22;;;19.87;63.68
50087;BME280;35967;50.718;7.050;2022-09-09T19:23:27;100211.41;;;19.67;64.78
50087;BME280;35967;50.718;7.050;2022-09-09T19:33:32;100211.19;;;19.83;65.63
50087;BME280;35967;50.718;7.050;2022-09-09T19:43:34;100230.31;;;19.58;66.22
50087;BME280;35967;50.718;7.050;2022-09-09T19:53:45;100246.69;;;19.60;66.17
50087;BME280;35967;50.718;7.050;2022-09-09T20:03:49;100263.16;;;19.34;67.44
50087;BME280;35967;50.718;7.050;2022-09-09T20:13:52;100268.03;;;19.26;67.46
50087;BME280;35967;50.718;7.050;2022-09-09T20:23:54;100259.63;;;19.08;68.38
50087;BME280;35967;50.718;7.050;2022-09-09T20:34:07;100270.78;;;19.37;67.44
50087;BME280;35967;50.718;7.050;2022-09-09T20:44:20;100280.03;;;19.29;67.30
50087;BME280;35967;50.718;7.050;2022-09-09T20:54:26;100280.53;;;19.48;66.29
50087;BME280;35967;50.718;7.050;2022-09-09T21:04:30;100280.19;;;19.40;66.22
50087;BME280;35967;50.718;7.050;2022-09-09T21:14:32;100273.69;;;19.33;64.92
50087;BME280;35967;50.718;7.050;2022-09-09T21:24:34;100262.31;;;19.34;65.06
50087;BME280;35967;50.718;7.050;2022-09-09T21:34:36;100256.78;;;19.26;65.02
50087;BME280;35967;50.718;7.050;2022-09-09T21:44:38;100261.25;;;19.23;65.53
50087;BME280;35967;50.718;7.050;2022-09-09T21:54:41;100270.53;;;19.15;65.45
50087;BME280;35967;50.718;7.050;2022-09-09T22:04:44;100265.25;;;19.02;65.70
50087;BME280;35967;50.718;7.050;2022-09-09T22:14:47;100267.41;;;18.95;66.19
50087;BME280;35967;50.718;7.050;2022-09-09T22:24:49;100268.44;;;18.92;66.12
50087;BME280;35967;50.718;7.050;2022-09-09T22:34:50;100272.63;;;18.95;65.98
50087;BME280;35967;50.718;7.050;2022-09-09T22:44:52;100268.63;;;18.75;66.50
50087;BME280;35967;50.718;7.050;2022-09-09T22:54:54;100254.34;;;18.53;67.47
50087;BME280;35967;50.718;7.050;2022-09-09T23:04:56;100258.16;;;18.48;68.07
50087;BME280;35967;50.718;7.050;2022-09-09T23:14:59;100259.09;;;18.47;67.61
50087;BME280;35967;50.718;7.050;2022-09-09T23:25:03;100237.19;;;18.49;67.36
50087;BME280;35967;50.718;7.050;2022-09-09T23:35:06;100253.03;;;18.46;67.68
50087;BME280;35967;50.718;7.050;2022-09-09T23:45:09;100259.00;;;18.34;67.46
50087;BME280;35967;50.718;7.050;2022-09-09T23:55:11;100264.59;;;18.27;67.36
